Time;durP1;ratioP1;P1;durP2;ratioP2;P2;SDS_P1;SDS_P2;PMS_P1;PMS_P2;Temp;Humidity;BMP_temperature;BMP_pressure;BME280_temperature;BME280_humidity;BME280_pressure;Samples;Min_cycle;Max_cycle;Signal;HPM_P1;HPM_P2
2022/07/02 00:00:17;;;;;;;2.00;1.35;;;23.90;62.00;;;;;;5112536;28;20427;-68
2022/07/02 00:02:44;;;;;;;1.30;1.20;;;23.90;62.00;;;;;;5112383;28;20761;-68
2022/07/02 00:05:12;;;;;;;1.58;1.20;;;23.90;61.80;;;;;;5111892;28;20415;-68
2022/07/02 00:07:38;;;;;;;1.30;1.20;;;23.80;62.00;;;;;;5109585;28;20392;-67
2022/07/02 00:10:04;;;;;;;1.40;1.30;;;23.80;61.80;;;;;;5112366;28;20487;-64
2022/07/02 00:12:30;;;;;;;1.52;1.17;;;23.80;61.80;;;;;;5112045;28;20737;-67
2022/07/02 00:15:00;;;;;;;1.65;1.20;;;23.80;61.80;;;;;;5108849;28;20897;-68
2022/07/02 00:17:26;;;;;;;1.70;1.08;;;23.80;61.70;;;;;;5112198;28;20391;-67
2022/07/02 00:19:53;;;;;;;1.50;1.40;;;23.80;61.80;;;;;;5111828;28;20817;-67
2022/07/02 00:22:20;;;;;;;1.33;1.20;;;23.80;61.80;;;;;;5111958;28;20865;-67
2022/07/02 00:24:46;;;;;;;1.58;1.20;;;23.80;61.90;;;;;;5110972;28;20784;-65
2022/07/02 00:27:18;;;;;;;2.05;1.38;;;23.80;61.90;;;;;;5111444;28;20785;-67
2022/07/02 00:29:51;;;;;;;1.35;1.25;;;23.80;61.80;;;;;;5111506;28;20876;-67
2022/07/02 00:32:17;;;;;;;1.60;1.25;;;23.80;61.80;;;;;;5108038;28;20418;-67
2022/07/02 00:34:45;;;;;;;1.60;1.25;;;23.80;61.70;;;;;;5111580;28;20893;-65
2022/07/02 00:37:12;;;;;;;1.58;1.48;;;23.80;61.70;;;;;;5109913;28;20451;-64
2022/07/02 00:39:38;;;;;;;1.35;1.25;;;23.80;61.70;;;;;;5106941;28;21143;-68
2022/07/02 00:42:06;;;;;;;1.40;1.30;;;23.80;61.70;;;;;;5111644;28;20534;-65
2022/07/02 00:44:33;;;;;;;1.88;1.23;;;23.80;61.80;;;;;;5111418;28;20537;-66
2022/07/02 00:47:06;;;;;;;1.35;1.25;;;23.80;61.70;;;;;;5110782;28;20738;-65
2022/07/02 00:49:33;;;;;;;1.25;1.10;;;23.80;61.80;;;;;;5111367;28;20387;-64
2022/07/02 00:52:00;;;;;;;1.52;1.20;;;23.80;61.70;;;;;;5111424;28;20465;-65
2022/07/02 00:54:27;;;;;;;1.47;1.30;;;23.80;62.40;;;;;;5111199;28;20411;-66
2022/07/02 00:56:53;;;;;;;1.30;1.10;;;23.80;61.70;;;;;;5110774;28;20377;-67
2022/07/02 00:59:23;;;;;;;1.52;1.23;;;23.80;61.80;;;;;;5111377;28;20464;-67
2022/07/02 01:01:49;;;;;;;1.13;1.00;;;23.80;62.30;;;;;;5111314;28;20832;-67
2022/07/02 01:04:16;;;;;;;1.63;1.30;;;23.80;62.30;;;;;;5110854;28;20889;-67
2022/07/02 01:06:42;;;;;;;1.65;1.30;;;23.80;61.70;;;;;;5111332;28;20384;-67
2022/07/02 01:12:02;;;;;;;1.90;1.30;;;23.80;61.60;;;;;;5108635;28;20372;-67
2022/07/02 01:14:28;;;;;;;1.40;1.30;;;23.80;61.60;;;;;;5110778;28;20408;-67
2022/07/02 01:16:55;;;;;;;1.50;1.15;;;23.80;61.60;;;;;;5110490;28;20407;-68
2022/07/02 01:19:23;;;;;;;1.30;1.20;;;23.80;61.60;;;;;;5110690;28;20372;-68
2022/07/02 01:22:10;;;;;;;1.25;1.15;;;23.70;61.60;;;;;;5110989;28;20424;-65
2022/07/02 01:24:36;;;;;;;1.48;1.08;;;23.80;61.70;;;;;;5110606;28;20376;-68
2022/07/02 01:27:02;;;;;;;1.58;1.00;;;23.80;61.60;;;;;;5110251;28;20895;-67
2022/07/02 01:29:28;;;;;;;1.10;1.00;;;23.80;61.60;;;;;;5110722;28;20373;-66
2022/07/02 01:31:53;;;;;;;1.58;1.30;;;23.80;61.50;;;;;;5110765;28;20383;-65
2022/07/02 01:34:19;;;;;;;1.53;1.43;;;23.80;61.50;;;;;;5110511;28;20483;-65
2022/07/02 01:36:45;;;;;;;1.30;1.10;;;23.70;61.50;;;;;;5110760;28;20412;-63
2022/07/02 01:39:10;;;;;;;1.43;1.10;;;23.70;61.50;;;;;;5110231;28;20416;-67
2022/07/02 01:41:39;;;;;;;1.40;1.20;;;23.70;61.60;;;;;;5109969;28;20734;-65
2022/07/02 01:44:05;;;;;;;1.30;1.20;;;23.70;61.60;;;;;;5110549;28;20380;-66
2022/07/02 01:46:31;;;;;;;1.23;1.13;;;23.70;61.50;;;;;;5110353;28;20392;-67
2022/07/02 01:48:57;;;;;;;1.37;1.27;;;23.70;61.50;;;;;;5107282;28;20387;-67
2022/07/02 01:51:22;;;;;;;1.90;1.30;;;23.70;61.40;;;;;;5110202;28;20495;-66
2022/07/02 01:53:48;;;;;;;1.90;1.30;;;23.70;61.50;;;;;;5110182;28;20380;-67
2022/07/02 01:56:14;;;;;;;1.37;1.27;;;23.70;61.50;;;;;;5110146;28;21214;-68
2022/07/02 01:58:39;;;;;;;1.20;1.10;;;23.70;61.40;;;;;;5110405;28;20389;-67
2022/07/02 02:01:05;;;;;;;1.37;1.20;;;23.70;61.50;;;;;;5109600;28;20791;-66
2022/07/02 02:03:31;;;;;;;1.10;1.00;;;23.70;61.40;;;;;;5110481;28;20433;-67
2022/07/02 02:05:56;;;;;;;1.57;1.27;;;23.70;61.30;;;;;;5110140;28;21164;-65
2022/07/02 02:08:22;;;;;;;1.15;1.05;;;23.70;61.40;;;;;;5109005;28;20384;-67
2022/07/02 02:10:48;;;;;;;1.58;1.20;;;23.70;61.30;;;;;;5110093;28;20483;-66
2022/07/02 02:13:13;;;;;;;1.27;1.17;;;23.70;61.30;;;;;;5108641;28;20475;-65
2022/07/02 02:15:39;;;;;;;1.10;1.00;;;23.70;61.40;;;;;;5108750;28;20438;-68
2022/07/02 02:18:04;;;;;;;1.10;1.00;;;23.70;61.90;;;;;;5107515;28;20424;-62
2022/07/02 02:20:30;;;;;;;1.47;1.30;;;23.70;61.30;;;;;;5108936;28;20388;-63
2022/07/02 02:22:56;;;;;;;1.40;1.30;;;23.70;61.40;;;;;;5109485;28;20862;-64
2022/07/02 02:25:21;;;;;;;1.50;1.40;;;23.70;61.30;;;;;;5109965;28;20396;-67
2022/07/02 02:27:47;;;;;;;1.33;1.23;;;23.70;61.20;;;;;;5110117;28;20902;-67
2022/07/02 02:30:14;;;;;;;1.30;1.20;;;23.70;61.30;;;;;;5108900;28;20388;-68
2022/07/02 02:32:40;;;;;;;1.30;1.20;;;23.70;61.30;;;;;;5109886;28;20380;-68
2022/07/02 02:35:06;;;;;;;1.30;1.20;;;23.70;61.20;;;;;;5109641;28;20408;-63
2022/07/02 02:37:32;;;;;;;1.33;1.20;;;23.70;61.20;;;;;;5109810;28;20451;-68
2022/07/02 02:39:58;;;;;;;1.50;1.10;;;23.70;61.30;;;;;;5109909;28;20926;-66
2022/07/02 02:42:23;;;;;;;1.67;1.10;;;23.70;61.30;;;;;;5109857;28;20376;-66
2022/07/02 02:44:49;;;;;;;1.35;1.15;;;23.70;61.20;;;;;;5108920;28;20762;-63
2022/07/02 02:47:15;;;;;;;1.52;1.42;;;23.60;61.10;;;;;;5109298;28;20415;-66
2022/07/02 02:49:40;;;;;;;1.50;1.30;;;23.70;61.20;;;;;;5110032;28;20388;-63
2022/07/02 02:52:06;;;;;;;1.20;1.10;;;23.70;61.20;;;;;;5109832;28;20861;-68
2022/07/02 02:54:32;;;;;;;1.30;1.20;;;23.70;61.20;;;;;;5109588;28;20408;-64
2022/07/02 02:56:57;;;;;;;1.08;1.00;;;23.70;61.20;;;;;;5108772;28;20388;-68
2022/07/02 02:59:23;;;;;;;1.30;1.00;;;23.70;61.20;;;;;;5109831;28;20384;-67
2022/07/02 03:01:49;;;;;;;1.27;1.17;;;23.60;61.00;;;;;;5110652;28;20386;-67
2022/07/02 03:04:15;;;;;;;1.25;1.00;;;23.70;61.30;;;;;;5113587;28;20422;-63
2022/07/02 03:06:41;;;;;;;1.20;1.10;;;23.70;61.30;;;;;;5113557;28;20437;-67
2022/07/02 03:09:06;;;;;;;1.20;1.10;;;23.60;61.10;;;;;;5112812;28;20474;-68
2022/07/02 03:11:32;;;;;;;1.05;0.85;;;23.60;61.00;;;;;;5113442;28;20799;-67
2022/07/02 03:13:58;;;;;;;1.23;1.00;;;23.60;61.10;;;;;;5113194;28;20467;-66
2022/07/02 03:16:24;;;;;;;1.40;1.10;;;23.60;61.10;;;;;;5113263;28;20394;-64
2022/07/02 03:18:50;;;;;;;1.40;1.30;;;23.60;61.10;;;;;;5112971;28;20381;-65
2022/07/02 03:21:15;;;;;;;1.30;1.20;;;23.60;61.20;;;;;;5112389;28;20388;-67
2022/07/02 03:23:41;;;;;;;1.30;1.00;;;23.60;61.10;;;;;;5111200;28;20388;-67
2022/07/02 03:26:07;;;;;;;1.20;1.02;;;23.60;61.10;;;;;;5111944;28;20449;-67
2022/07/02 03:28:32;;;;;;;1.60;1.30;;;23.60;61.10;;;;;;5112805;28;20388;-68
2022/07/02 03:30:58;;;;;;;1.25;1.10;;;23.60;61.10;;;;;;5112537;28;20392;-66
2022/07/02 03:33:25;;;;;;;1.00;0.90;;;23.60;61.00;;;;;;5112848;28;20411;-66
2022/07/02 03:35:50;;;;;;;1.60;1.00;;;23.60;61.00;;;;;;5113111;28;20408;-66
2022/07/02 03:38:16;;;;;;;1.10;1.00;;;23.60;61.00;;;;;;5112539;28;20410;-68
2022/07/02 03:40:43;;;;;;;1.60;1.00;;;23.60;61.00;;;;;;5112645;28;20857;-66
2022/07/02 03:43:08;;;;;;;1.17;1.07;;;23.60;61.00;;;;;;5112272;28;20395;-68
2022/07/02 03:45:34;;;;;;;1.15;1.00;;;23.60;60.90;;;;;;5112757;27;20376;-65
2022/07/02 03:48:00;;;;;;;1.30;1.10;;;23.60;60.90;;;;;;5112662;28;20480;-66
2022/07/02 03:50:26;;;;;;;1.10;1.00;;;23.60;60.90;;;;;;5112633;28;20384;-66
2022/07/02 03:52:51;;;;;;;2.67;1.10;;;23.60;60.90;;;;;;5112630;28;20493;-68
2022/07/02 03:55:20;;;;;;;1.40;1.20;;;23.60;61.00;;;;;;5111913;28;20408;-68
2022/07/02 03:57:46;;;;;;;1.20;1.10;;;23.60;60.80;;;;;;5112699;28;20392;-67
2022/07/02 04:00:12;;;;;;;1.33;1.23;;;23.60;60.80;;;;;;5112863;28;20900;-67
2022/07/02 04:02:38;;;;;;;1.10;1.00;;;23.60;60.80;;;;;;5113111;28;20376;-66
2022/07/02 04:05:04;;;;;;;1.23;1.10;;;23.60;60.70;;;;;;5112329;27;20980;-67
2022/07/02 04:07:29;;;;;;;1.50;1.20;;;23.60;60.70;;;;;;5112921;28;20384;-67
2022/07/02 04:09:55;;;;;;;1.30;1.20;;;23.60;60.70;;;;;;5111283;28;20424;-68
2022/07/02 04:12:21;;;;;;;1.27;1.17;;;23.60;60.60;;;;;;5112196;28;20385;-66
2022/07/02 04:14:46;;;;;;;1.20;1.10;;;23.60;60.90;;;;;;5112642;28;20467;-64
2022/07/02 04:17:12;;;;;;;1.67;1.30;;;23.60;60.70;;;;;;5110933;28;20384;-64
2022/07/02 04:19:37;;;;;;;1.80;1.10;;;23.60;60.80;;;;;;5112646;28;20395;-67
2022/07/02 04:22:03;;;;;;;1.40;1.03;;;23.60;60.80;;;;;;5112249;28;20380;-67
2022/07/02 04:24:29;;;;;;;1.30;1.20;;;23.60;60.70;;;;;;5112226;28;20384;-66
2022/07/02 04:26:55;;;;;;;1.17;1.08;;;23.60;60.70;;;;;;5110909;28;20484;-63
2022/07/02 04:29:21;;;;;;;2.80;1.20;;;23.60;60.80;;;;;;5111094;28;20385;-66
2022/07/02 04:31:46;;;;;;;2.15;1.15;;;23.60;60.80;;;;;;5112266;28;20380;-63
2022/07/02 04:34:12;;;;;;;1.83;1.40;;;23.70;61.20;;;;;;5112324;28;20404;-65
2022/07/02 04:36:39;;;;;;;2.60;1.50;;;23.70;61.50;;;;;;5112219;28;20393;-63
2022/07/02 04:39:05;;;;;;;2.33;1.30;;;23.70;61.80;;;;;;5111567;28;20380;-67
2022/07/02 04:41:31;;;;;;;2.20;1.25;;;23.70;61.90;;;;;;5111348;27;20388;-67
2022/07/02 04:43:58;;;;;;;1.88;1.42;;;23.70;61.40;;;;;;5111743;27;20851;-66
2022/07/02 04:46:23;;;;;;;2.03;1.42;;;23.70;61.80;;;;;;5112016;28;20419;-67
2022/07/02 04:48:49;;;;;;;3.63;1.20;;;23.70;61.40;;;;;;5111597;28;20412;-66
2022/07/02 04:51:15;;;;;;;2.67;1.50;;;23.70;60.50;;;;;;5111335;28;20396;-66
2022/07/02 04:53:41;;;;;;;2.60;1.52;;;23.70;60.90;;;;;;5111919;28;20384;-68
2022/07/02 04:56:07;;;;;;;3.27;1.40;;;23.70;60.70;;;;;;5111333;28;20449;-66
2022/07/02 04:58:32;;;;;;;4.03;1.55;;;23.70;60.80;;;;;;5112640;28;20381;-66
2022/07/02 05:00:58;;;;;;;1.60;1.50;;;23.70;60.90;;;;;;5112207;28;20434;-67
2022/07/02 05:03:23;;;;;;;2.53;1.60;;;23.70;60.60;;;;;;5112384;28;20780;-67
2022/07/02 05:05:49;;;;;;;2.60;1.73;;;23.70;60.60;;;;;;5112100;28;20396;-65
2022/07/02 05:08:15;;;;;;;2.27;1.53;;;23.70;61.10;;;;;;5112083;28;20396;-67
2022/07/02 05:10:41;;;;;;;2.50;1.70;;;23.60;60.30;;;;;;5112284;28;20388;-67
2022/07/02 05:13:06;;;;;;;2.20;1.50;;;23.60;60.10;;;;;;5111844;28;20805;-66
2022/07/02 05:15:32;;;;;;;2.20;1.50;;;23.60;60.10;;;;;;5110837;27;20408;-67
2022/07/02 05:17:58;;;;;;;2.97;1.10;;;23.60;59.60;;;;;;5111273;28;20780;-67
2022/07/02 05:20:24;;;;;;;2.85;1.50;;;23.60;59.70;;;;;;5112371;28;20397;-67
2022/07/02 05:22:50;;;;;;;2.00;1.63;;;23.60;59.90;;;;;;5112139;28;20530;-67
2022/07/02 05:25:16;;;;;;;2.35;1.70;;;23.50;59.50;;;;;;5110812;28;20384;-66
2022/07/02 05:27:42;;;;;;;2.83;1.27;;;23.50;59.50;;;;;;5111514;28;20385;-68
2022/07/02 05:30:08;;;;;;;2.80;1.55;;;23.50;59.60;;;;;;5110185;28;20464;-65
2022/07/02 05:32:33;;;;;;;2.20;1.40;;;23.50;59.50;;;;;;5110719;28;20373;-67
2022/07/02 05:34:59;;;;;;;2.67;1.55;;;23.50;59.10;;;;;;5111673;28;20420;-67
2022/07/02 05:37:25;;;;;;;2.55;1.13;;;23.50;59.30;;;;;;5111606;28;20387;-68
2022/07/02 05:39:50;;;;;;;2.27;1.30;;;23.40;59.20;;;;;;5111340;28;20400;-66
2022/07/02 05:42:16;;;;;;;3.30;1.20;;;23.50;59.10;;;;;;5111994;28;20405;-69
2022/07/02 05:44:41;;;;;;;2.27;1.30;;;23.40;59.30;;;;;;5111621;28;20380;-67
2022/07/02 05:47:07;;;;;;;5.03;1.33;;;23.40;59.40;;;;;;5109930;28;20396;-68
2022/07/02 05:49:33;;;;;;;3.80;1.30;;;23.40;59.40;;;;;;5111725;28;20400;-67
2022/07/02 05:51:58;;;;;;;4.73;1.40;;;23.50;59.80;;;;;;5111507;28;20396;-68
2022/07/02 05:54:24;;;;;;;5.18;1.60;;;23.50;59.80;;;;;;5112325;28;20424;-67
2022/07/02 05:56:49;;;;;;;4.15;1.50;;;23.50;59.80;;;;;;5111586;28;20387;-66
2022/07/02 05:59:15;;;;;;;3.97;1.40;;;23.50;59.80;;;;;;5111287;28;20388;-67
2022/07/02 06:01:41;;;;;;;3.05;1.50;;;23.50;59.80;;;;;;5111586;28;20380;-68
2022/07/02 06:04:06;;;;;;;3.38;1.42;;;23.50;59.90;;;;;;5110941;28;20415;-69
2022/07/02 06:09:16;;;;;;;6.47;2.20;;;23.50;60.00;;;;;;5110996;28;20431;-68
2022/07/02 06:11:41;;;;;;;4.60;1.93;;;23.60;61.70;;;;;;5111500;28;20901;-67
2022/07/02 06:14:07;;;;;;;4.72;1.80;;;23.60;64.60;;;;;;5111446;28;20483;-68
2022/07/02 06:16:33;;;;;;;5.40;1.80;;;23.70;63.00;;;;;;5111255;28;20381;-68
2022/07/02 06:18:58;;;;;;;7.78;2.08;;;23.70;62.40;;;;;;5111633;28;20372;-68
2022/07/02 06:21:24;;;;;;;8.38;2.20;;;23.70;62.30;;;;;;5111010;28;20695;-64
2022/07/02 06:23:50;;;;;;;6.57;2.20;;;23.70;62.50;;;;;;5110433;28;20380;-67
2022/07/02 06:26:15;;;;;;;5.53;2.00;;;23.70;62.40;;;;;;5109710;28;20417;-67
2022/07/02 06:28:41;;;;;;;5.38;1.90;;;23.70;62.40;;;;;;5111363;28;20381;-68
2022/07/02 06:31:06;;;;;;;6.90;1.90;;;23.70;62.20;;;;;;5110807;28;20395;-68
2022/07/02 06:33:32;;;;;;;4.25;1.80;;;23.70;62.10;;;;;;5111336;28;20429;-68
2022/07/02 06:35:58;;;;;;;4.90;1.70;;;23.70;62.00;;;;;;5110978;28;20481;-68
2022/07/02 06:38:23;;;;;;;4.87;1.90;;;23.70;61.90;;;;;;5115169;28;20433;-68
2022/07/02 06:40:49;;;;;;;3.60;1.60;;;23.80;61.90;;;;;;5114588;28;20385;-68
2022/07/02 06:43:15;;;;;;;2.80;1.77;;;23.80;61.80;;;;;;5114471;28;20467;-62
2022/07/02 06:45:40;;;;;;;3.95;1.77;;;23.80;61.70;;;;;;5114980;28;20388;-67
2022/07/02 06:48:06;;;;;;;3.38;1.75;;;23.80;61.60;;;;;;5114947;28;20389;-68
2022/07/02 06:50:32;;;;;;;3.27;1.70;;;23.80;61.50;;;;;;5115355;28;20384;-65
2022/07/02 06:52:57;;;;;;;2.22;1.70;;;23.70;61.40;;;;;;5115023;27;20386;-68
2022/07/02 06:55:23;;;;;;;2.17;1.67;;;23.80;61.40;;;;;;5114165;28;20516;-63
2022/07/02 06:57:49;;;;;;;3.67;1.70;;;23.80;61.20;;;;;;5114903;28;20779;-68
2022/07/02 07:00:15;;;;;;;2.20;1.50;;;23.80;61.20;;;;;;5114698;28;20380;-65
2022/07/02 07:02:41;;;;;;;2.38;1.45;;;23.80;61.20;;;;;;5114900;28;20376;-69
2022/07/02 07:05:07;;;;;;;1.90;1.45;;;23.80;61.00;;;;;;5120711;27;20985;-68
2022/07/02 07:07:34;;;;;;;2.33;1.37;;;23.80;61.00;;;;;;5113699;28;20421;-69
2022/07/02 07:10:00;;;;;;;2.63;1.40;;;23.80;60.90;;;;;;5114660;28;20470;-66
2022/07/02 07:12:26;;;;;;;2.35;1.33;;;23.80;60.90;;;;;;5113991;28;20480;-69
2022/07/02 07:14:52;;;;;;;2.15;1.23;;;23.80;60.90;;;;;;5113763;28;20400;-63
2022/07/02 07:17:18;;;;;;;2.63;1.30;;;23.80;61.00;;;;;;5113201;28;20526;-69
2022/07/02 07:19:43;;;;;;;2.90;1.40;;;23.80;60.90;;;;;;5112424;28;20384;-69
2022/07/02 07:22:09;;;;;;;2.87;1.50;;;23.80;60.90;;;;;;5113746;28;20380;-68
2022/07/02 07:24:35;;;;;;;1.50;1.10;;;23.80;60.90;;;;;;5113784;28;20502;-68
2022/07/02 07:27:01;;;;;;;1.90;1.20;;;23.80;60.80;;;;;;5113303;28;20784;-69
2022/07/02 07:29:27;;;;;;;2.50;1.50;;;23.80;60.80;;;;;;5110989;28;20408;-67
2022/07/02 07:31:52;;;;;;;2.30;1.23;;;23.80;60.50;;;;;;5112786;28;20389;-68
2022/07/02 07:34:18;;;;;;;1.73;1.10;;;23.80;60.70;;;;;;5114037;28;20491;-69
2022/07/02 07:36:44;;;;;;;2.00;1.50;;;23.80;60.80;;;;;;5112643;28;20889;-64
2022/07/02 07:39:10;;;;;;;2.33;1.40;;;23.80;60.70;;;;;;5113588;28;20869;-69
2022/07/02 07:41:36;;;;;;;1.47;1.30;;;23.80;60.70;;;;;;5114392;28;20508;-66
2022/07/02 07:44:03;;;;;;;2.13;1.50;;;23.80;60.80;;;;;;5114291;28;20388;-66
2022/07/02 07:46:29;;;;;;;1.52;1.40;;;23.80;60.70;;;;;;5111800;27;20415;-67
2022/07/02 07:48:54;;;;;;;1.70;1.38;;;23.80;60.70;;;;;;5113423;28;20416;-65
2022/07/02 07:51:20;;;;;;;1.48;1.23;;;23.80;60.70;;;;;;5113418;28;20389;-66
2022/07/02 07:53:46;;;;;;;1.70;1.30;;;23.90;60.70;;;;;;5116675;27;20385;-66
2022/07/02 07:56:18;;;;;;;1.60;1.50;;;23.90;60.70;;;;;;5113656;28;20412;-69
2022/07/02 07:58:44;;;;;;;1.80;1.30;;;23.90;60.70;;;;;;5114209;28;20412;-66
2022/07/02 08:01:10;;;;;;;1.50;1.15;;;23.90;60.70;;;;;;5119839;27;20437;-68
2022/07/02 08:03:35;;;;;;;1.30;1.20;;;23.90;60.70;;;;;;5120603;27;20385;-63
2022/07/02 08:06:01;;;;;;;1.30;1.05;;;23.90;60.60;;;;;;5113909;28;20406;-69
2022/07/02 08:08:27;;;;;;;1.63;1.25;;;23.90;60.60;;;;;;5113421;28;20392;-69
2022/07/02 08:10:52;;;;;;;2.45;1.23;;;23.90;60.60;;;;;;5113513;28;20468;-69
2022/07/02 08:13:18;;;;;;;1.63;1.02;;;23.90;60.60;;;;;;5112642;28;20730;-69
2022/07/02 08:15:44;;;;;;;1.60;1.10;;;23.90;60.60;;;;;;5113395;28;20419;-68
2022/07/02 08:18:10;;;;;;;1.23;1.10;;;23.90;60.60;;;;;;5113522;28;20384;-69
2022/07/02 08:20:36;;;;;;;1.30;1.20;;;23.90;60.50;;;;;;5112313;28;20385;-68
2022/07/02 08:23:02;;;;;;;1.13;1.00;;;23.90;60.50;;;;;;5113667;28;20430;-68
2022/07/02 08:25:30;;;;;;;1.10;1.00;;;23.90;60.50;;;;;;5113049;28;20912;-67
2022/07/02 08:27:55;;;;;;;1.40;1.30;;;23.90;60.50;;;;;;5113376;28;20380;-69
2022/07/02 08:30:21;;;;;;;1.53;1.10;;;23.90;60.50;;;;;;5113482;28;20464;-69
2022/07/02 08:32:47;;;;;;;1.10;1.00;;;23.90;60.50;;;;;;5113291;28;20426;-69
2022/07/02 08:35:13;;;;;;;1.20;1.10;;;23.90;60.50;;;;;;5112862;28;20420;-69
2022/07/02 08:37:39;;;;;;;1.90;1.10;;;23.90;60.50;;;;;;5113273;27;20767;-69
2022/07/02 08:40:05;;;;;;;1.90;1.20;;;23.90;60.50;;;;;;5113157;28;20483;-65
2022/07/02 08:42:32;;;;;;;1.03;0.90;;;23.90;60.50;;;;;;5113109;28;20384;-69
2022/07/02 08:45:03;;;;;;;1.55;1.20;;;24.00;60.50;;;;;;5113126;28;20381;-68
2022/07/02 08:47:29;;;;;;;1.30;1.20;;;23.90;60.50;;;;;;5112706;28;20389;-67
2022/07/02 08:49:58;;;;;;;1.27;1.17;;;23.90;60.50;;;;;;5112912;28;20388;-67
2022/07/02 08:52:26;;;;;;;1.40;1.27;;;23.90;60.50;;;;;;5113020;28;20375;-69
2022/07/02 08:54:53;;;;;;;1.65;1.35;;;24.00;60.50;;;;;;5112869;28;20432;-69
2022/07/02 08:57:20;;;;;;;1.25;1.15;;;23.90;60.40;;;;;;5112461;28;20404;-63
2022/07/02 08:59:46;;;;;;;1.08;0.98;;;24.00;60.50;;;;;;5112168;28;20418;-64
2022/07/02 09:02:13;;;;;;;1.27;1.10;;;23.90;60.40;;;;;;5111550;28;20388;-67
2022/07/02 09:04:47;;;;;;;1.33;1.00;;;24.00;60.40;;;;;;5112598;28;20392;-69
2022/07/02 09:07:14;;;;;;;1.33;1.23;;;23.90;60.40;;;;;;5112157;28;20397;-68
2022/07/02 09:09:43;;;;;;;1.48;1.38;;;24.00;60.30;;;;;;5112716;28;20442;-67
2022/07/02 09:12:14;;;;;;;1.40;1.30;;;23.90;60.40;;;;;;5112585;28;20470;-69
2022/07/02 09:14:41;;;;;;;1.20;1.10;;;23.90;60.40;;;;;;5112648;27;20758;-68
2022/07/02 09:17:08;;;;;;;1.40;1.20;;;24.00;60.40;;;;;;5112466;28;20427;-67
2022/07/02 09:19:35;;;;;;;1.60;1.50;;;23.90;60.30;;;;;;5112252;28;20904;-67
2022/07/02 09:22:01;;;;;;;1.75;1.30;;;23.90;60.20;;;;;;5112417;28;20385;-69
2022/07/02 09:24:35;;;;;;;1.20;1.10;;;23.90;60.20;;;;;;5112326;28;20450;-63
2022/07/02 09:27:04;;;;;;;1.37;1.00;;;24.00;60.30;;;;;;5111978;28;20452;-63
2022/07/02 09:29:45;;;;;;;1.20;1.10;;;24.00;60.20;;;;;;5111210;28;20930;-69
2022/07/02 09:32:11;;;;;;;1.10;1.00;;;24.00;60.20;;;;;;5112230;28;20392;-68
2022/07/02 09:34:44;;;;;;;1.20;1.10;;;24.00;60.20;;;;;;5112027;28;20779;-68
2022/07/02 09:37:18;;;;;;;1.30;1.20;;;24.00;60.20;;;;;;5111827;28;20388;-69
2022/07/02 09:39:45;;;;;;;1.20;1.10;;;24.00;60.10;;;;;;5113904;27;20379;-68
2022/07/02 09:42:11;;;;;;;1.17;1.08;;;24.00;60.20;;;;;;5110570;28;20393;-69
2022/07/02 09:44:47;;;;;;;1.20;1.10;;;24.00;60.10;;;;;;5111809;28;20368;-63
2022/07/02 09:47:13;;;;;;;1.15;1.05;;;24.00;60.10;;;;;;5111222;28;20746;-68
2022/07/02 09:49:50;;;;;;;1.35;1.25;;;24.00;60.10;;;;;;5111727;28;20376;-67
2022/07/02 09:52:17;;;;;;;1.10;1.00;;;24.00;60.10;;;;;;5111671;28;20384;-67
2022/07/02 09:54:43;;;;;;;1.33;1.13;;;24.00;60.00;;;;;;5111384;28;20427;-68
2022/07/02 09:57:11;;;;;;;1.10;1.00;;;24.00;60.00;;;;;;5111302;28;20403;-64
2022/07/02 09:59:37;;;;;;;1.85;1.13;;;24.00;60.00;;;;;;5111635;28;20388;-69
2022/07/02 10:02:04;;;;;;;1.50;1.10;;;24.00;60.00;;;;;;5111992;28;20419;-69
2022/07/02 10:04:31;;;;;;;1.10;1.00;;;24.00;60.00;;;;;;5111508;28;20409;-63
2022/07/02 10:06:58;;;;;;;3.40;1.25;;;24.00;60.00;;;;;;5111322;28;20388;-69
2022/07/02 10:09:26;;;;;;;4.00;1.63;;;24.00;59.90;;;;;;5111086;28;20446;-66
2022/07/02 10:11:51;;;;;;;2.13;1.60;;;24.00;59.60;;;;;;5114506;28;20719;-68
2022/07/02 10:14:20;;;;;;;2.80;1.80;;;24.00;59.20;;;;;;5115704;28;20415;-67
2022/07/02 10:16:47;;;;;;;4.85;1.60;;;24.00;59.20;;;;;;5115514;28;20897;-69
2022/07/02 10:19:14;;;;;;;5.27;1.80;;;24.00;58.60;;;;;;5115167;28;20914;-65
2022/07/02 10:21:40;;;;;;;4.97;1.80;;;24.00;58.60;;;;;;5115720;27;20858;-69
2022/07/02 10:24:12;;;;;;;4.05;1.80;;;24.00;58.60;;;;;;5115842;28;20368;-69
2022/07/02 10:26:39;;;;;;;6.03;1.88;;;24.00;59.10;;;;;;5115434;28;20453;-70
2022/07/02 10:29:05;;;;;;;4.20;1.90;;;24.00;59.60;;;;;;5115155;28;20764;-70
2022/07/02 10:31:37;;;;;;;2.97;1.90;;;24.10;59.10;;;;;;5115133;28;20407;-69
2022/07/02 10:34:44;;;;;;;2.05;1.60;;;24.10;58.60;;;;;;5115293;28;20403;-69
2022/07/02 10:37:11;;;;;;;3.10;1.70;;;24.10;58.70;;;;;;5115018;28;20392;-68
2022/07/02 10:39:42;;;;;;;4.88;1.80;;;24.10;59.10;;;;;;5114954;28;20759;-69
2022/07/02 10:42:08;;;;;;;3.25;1.80;;;24.20;58.80;;;;;;5113946;28;20943;-70
2022/07/02 10:44:38;;;;;;;2.60;1.67;;;24.20;58.80;;;;;;5114351;28;20950;-64
2022/07/02 10:47:05;;;;;;;2.83;1.60;;;24.20;59.40;;;;;;5114517;28;20381;-69
2022/07/02 10:49:31;;;;;;;3.70;1.70;;;24.20;58.90;;;;;;5115280;28;20376;-70
2022/07/02 10:51:57;;;;;;;2.60;1.65;;;24.20;58.80;;;;;;5115673;28;20390;-69
2022/07/02 10:54:31;;;;;;;4.30;1.70;;;24.20;58.90;;;;;;5115948;28;20400;-69
2022/07/02 10:56:57;;;;;;;3.15;2.00;;;24.20;59.00;;;;;;5114993;28;20467;-70
2022/07/02 10:59:28;;;;;;;2.85;1.90;;;24.20;59.10;;;;;;5117221;28;20377;-70
2022/07/02 11:02:04;;;;;;;2.90;1.63;;;24.20;59.20;;;;;;5115976;28;20396;-70
2022/07/02 11:04:30;;;;;;;2.35;1.65;;;24.20;59.10;;;;;;5115730;28;20399;-64
2022/07/02 11:07:06;;;;;;;2.60;1.60;;;24.20;59.30;;;;;;5116583;28;20392;-68
2022/07/02 11:09:32;;;;;;;3.20;1.65;;;24.20;59.40;;;;;;5114419;28;20453;-66
2022/07/02 11:12:02;;;;;;;3.10;1.77;;;24.30;60.70;;;;;;5114962;28;20869;-67
2022/07/02 11:14:31;;;;;;;5.20;2.10;;;24.30;60.80;;;;;;5114907;28;20447;-69
2022/07/02 11:16:57;;;;;;;2.45;1.83;;;24.40;61.80;;;;;;5114853;28;20467;-69
2022/07/02 11:19:28;;;;;;;4.28;2.15;;;24.40;62.20;;;;;;5114312;28;20431;-64
2022/07/02 11:21:59;;;;;;;2.30;1.60;;;24.40;61.80;;;;;;5112994;28;20412;-70
2022/07/02 11:24:34;;;;;;;2.23;1.60;;;24.40;61.10;;;;;;5114423;28;20758;-64
2022/07/02 11:27:00;;;;;;;4.72;1.80;;;24.50;61.20;;;;;;5114396;28;20391;-69
2022/07/02 11:29:26;;;;;;;4.40;1.98;;;24.40;60.70;;;;;;5114003;28;20389;-67
2022/07/02 11:31:55;;;;;;;5.07;1.85;;;24.50;62.00;;;;;;5114516;28;20437;-64
2022/07/02 11:34:23;;;;;;;3.35;1.67;;;24.60;61.50;;;;;;5114507;28;20408;-70
2022/07/02 11:36:49;;;;;;;4.20;1.92;;;24.60;61.20;;;;;;5114470;28;20364;-68
2022/07/02 11:39:17;;;;;;;3.40;1.80;;;24.60;61.50;;;;;;5114082;28;20395;-70
2022/07/02 11:41:44;;;;;;;5.63;1.75;;;24.60;61.60;;;;;;5114242;28;20427;-65
2022/07/02 11:44:25;;;;;;;3.35;2.00;;;24.60;61.70;;;;;;5114678;28;20376;-69
2022/07/02 11:46:56;;;;;;;3.50;1.90;;;24.60;61.30;;;;;;5114490;28;20454;-69
2022/07/02 11:49:24;;;;;;;2.97;1.92;;;24.60;60.40;;;;;;5113718;28;20384;-68
2022/07/02 11:51:51;;;;;;;3.45;1.95;;;24.50;60.10;;;;;;5110156;28;20381;-69
2022/07/02 11:54:18;;;;;;;2.70;1.65;;;24.50;59.90;;;;;;5113991;28;20944;-67
2022/07/02 11:56:45;;;;;;;6.00;2.00;;;24.40;59.30;;;;;;5113014;28;20402;-69
2022/07/02 11:59:13;;;;;;;5.18;1.77;;;24.40;59.20;;;;;;5113850;28;20914;-71
2022/07/02 12:01:40;;;;;;;8.50;2.00;;;24.40;59.10;;;;;;5112729;28;20397;-69
2022/07/02 12:04:10;;;;;;;4.63;2.00;;;24.40;59.10;;;;;;5113458;28;20407;-69
2022/07/02 12:06:38;;;;;;;3.50;2.00;;;24.40;59.20;;;;;;5113901;28;20447;-70
2022/07/02 12:09:15;;;;;;;4.22;1.80;;;24.40;59.20;;;;;;5113410;28;20399;-67
2022/07/02 12:11:44;;;;;;;4.50;1.85;;;24.40;59.30;;;;;;5113082;28;20391;-70
2022/07/02 12:14:11;;;;;;;3.03;1.70;;;24.40;59.30;;;;;;5113174;28;20901;-63
2022/07/02 12:16:39;;;;;;;3.50;1.60;;;24.40;59.20;;;;;;5113462;28;20381;-67
2022/07/02 12:19:13;;;;;;;3.50;1.60;;;24.40;59.20;;;;;;5113333;28;20392;-66
2022/07/02 12:21:44;;;;;;;3.38;1.90;;;24.40;59.20;;;;;;5112724;28;20420;-65
2022/07/02 12:24:34;;;;;;;2.90;1.60;;;24.40;59.10;;;;;;5113403;28;20477;-68
2022/07/02 12:27:10;;;;;;;3.30;1.63;;;24.40;59.00;;;;;;5113162;28;20750;-69
2022/07/02 12:32:26;;;;;;;3.10;1.70;;;24.40;59.10;;;;;;5113760;28;20862;-69
2022/07/02 12:34:55;;;;;;;2.80;1.50;;;24.40;59.10;;;;;;5112273;28;20412;-69
2022/07/02 12:37:35;;;;;;;2.00;1.60;;;24.40;59.10;;;;;;5112541;28;20373;-69
2022/07/02 12:40:14;;;;;;;2.58;1.63;;;24.40;59.10;;;;;;5111493;28;20484;-70
2022/07/02 12:42:55;;;;;;;3.72;1.70;;;24.40;59.10;;;;;;5113042;28;20869;-67
2022/07/02 12:45:30;;;;;;;2.55;1.65;;;24.40;59.10;;;;;;5112449;28;20746;-69
2022/07/02 12:48:06;;;;;;;2.38;1.60;;;24.40;59.10;;;;;;5112762;28;20387;-69
2022/07/02 12:50:35;;;;;;;2.78;1.70;;;24.40;59.10;;;;;;5113020;28;20437;-70
2022/07/02 12:53:04;;;;;;;2.13;1.58;;;24.40;59.10;;;;;;5112690;28;20377;-68
2022/07/02 12:55:32;;;;;;;2.47;1.38;;;24.40;59.20;;;;;;5110678;28;20924;-70